createdAt,value
2017-10-25T00:00:58.800Z,1013.54
2017-10-25T00:01:58.780Z,1013.52
2017-10-25T00:02:58.756Z,1013.54
2017-10-25T00:03:58.733Z,1013.57
2017-10-25T00:04:58.713Z,1013.59
2017-10-25T00:05:58.691Z,1013.6
2017-10-25T00:06:58.670Z,1013.57
2017-10-25T00:07:58.654Z,1013.57
2017-10-25T00:08:58.630Z,1013.55
2017-10-25T00:09:58.605Z,1013.55
2017-10-25T00:10:58.585Z,1013.53
2017-10-25T00:11:58.562Z,1013.55
2017-10-25T00:12:58.548Z,1013.48
2017-10-25T00:13:58.519Z,1013.47
2017-10-25T00:14:58.499Z,1013.49
2017-10-25T00:15:58.477Z,1013.48
2017-10-25T00:16:58.454Z,1013.46
2017-10-25T00:17:58.432Z,1013.48
2017-10-25T00:18:58.415Z,1013.47
2017-10-25T00:19:58.391Z,1013.49
2017-10-25T00:20:58.370Z,1013.48
2017-10-25T00:21:58.348Z,1013.49
2017-10-25T00:22:58.326Z,1013.5
2017-10-25T00:23:58.303Z,1013.46
2017-10-25T00:24:58.282Z,1013.47
2017-10-25T00:25:58.260Z,1013.46
2017-10-25T00:26:58.241Z,1013.49
2017-10-25T00:27:58.231Z,1013.41
2017-10-25T00:28:58.197Z,1013.45
2017-10-25T00:29:58.178Z,1013.47
2017-10-25T00:30:58.160Z,1013.46
2017-10-25T00:31:58.131Z,1013.51
2017-10-25T00:32:58.110Z,1013.5
2017-10-25T00:33:58.089Z,1013.49
2017-10-25T00:34:58.070Z,1013.51
2017-10-25T00:35:58.046Z,1013.5
2017-10-25T00:36:58.031Z,1013.53
2017-10-25T00:37:58.002Z,1013.5
2017-10-25T00:38:57.981Z,1013.47
2017-10-25T00:39:57.959Z,1013.43
2017-10-25T00:40:57.942Z,1013.42
2017-10-25T00:41:57.918Z,1013.41
2017-10-25T00:42:57.896Z,1013.39
2017-10-25T00:43:57.873Z,1013.38
2017-10-25T00:44:57.851Z,1013.38
2017-10-25T00:45:57.831Z,1013.35
2017-10-25T00:46:57.809Z,1013.35
2017-10-25T00:47:57.791Z,1013.33
2017-10-25T00:48:57.767Z,1013.35
2017-10-25T00:49:57.743Z,1013.37
2017-10-25T00:50:57.722Z,1013.35
2017-10-25T00:51:57.701Z,1013.35
2017-10-25T00:52:57.680Z,1013.33
2017-10-25T00:53:57.661Z,1013.32
2017-10-25T00:54:57.637Z,1013.37
2017-10-25T00:55:57.614Z,1013.32
2017-10-25T00:56:57.593Z,1013.31
2017-10-25T00:57:57.567Z,1013.29
2017-10-25T00:58:57.555Z,1013.3
2017-10-25T00:59:57.531Z,1013.3
2017-10-25T01:00:57.507Z,1013.27
2017-10-25T01:01:57.493Z,1013.29
2017-10-25T01:02:57.465Z,1013.23
2017-10-25T01:03:57.443Z,1013.26
2017-10-25T01:04:57.421Z,1013.29
2017-10-25T01:05:57.401Z,1013.28
2017-10-25T01:06:57.380Z,1013.31
2017-10-25T01:07:57.358Z,1013.25
2017-10-25T01:08:57.337Z,1013.31
2017-10-25T01:09:57.314Z,1013.26
2017-10-25T01:10:57.292Z,1013.22
2017-10-25T01:11:57.270Z,1013.26
2017-10-25T01:12:57.250Z,1013.23
2017-10-25T01:13:57.229Z,1013.25
2017-10-25T01:14:57.206Z,1013.3
2017-10-25T01:15:57.183Z,1013.29
2017-10-25T01:16:57.163Z,1013.22
2017-10-25T01:17:57.142Z,1013.25
2017-10-25T01:18:57.117Z,1013.21
2017-10-25T01:19:57.099Z,1013.19
2017-10-25T01:20:57.079Z,1013.19
2017-10-25T01:21:57.056Z,1013.14
2017-10-25T01:22:57.034Z,1013.15
2017-10-25T01:23:57.014Z,1013.16
2017-10-25T01:24:56.992Z,1013.16
2017-10-25T01:25:56.969Z,1013.17
2017-10-25T01:26:56.947Z,1013.2
2017-10-25T01:27:56.926Z,1013.23
2017-10-25T01:28:56.905Z,1013.21
2017-10-25T01:29:56.882Z,1013.22
2017-10-25T01:30:56.861Z,1013.22
2017-10-25T01:31:56.839Z,1013.15
2017-10-25T01:32:56.818Z,1013.16
2017-10-25T01:33:56.798Z,1013.14
2017-10-25T01:34:56.776Z,1013.09
2017-10-25T01:35:56.751Z,1013.13
2017-10-25T01:36:56.731Z,1013.16
2017-10-25T01:37:56.710Z,1013.13
2017-10-25T01:38:56.694Z,1013.12
2017-10-25T01:39:56.672Z,1013.14
2017-10-25T01:40:56.644Z,1013.12
2017-10-25T01:41:56.624Z,1013.14
2017-10-25T01:42:56.602Z,1013.12
2017-10-25T01:43:56.579Z,1013.12
2017-10-25T01:44:56.557Z,1013.07
2017-10-25T01:45:56.536Z,1013.11
2017-10-25T01:46:56.519Z,1013.04
2017-10-25T01:47:56.492Z,1013.09
2017-10-25T01:48:56.474Z,1013.11
2017-10-25T01:49:56.453Z,1013.14
2017-10-25T01:50:56.429Z,1013.16
2017-10-25T01:51:56.406Z,1013.13
2017-10-25T01:52:56.387Z,1013.14
2017-10-25T01:53:56.364Z,1013.09
2017-10-25T01:54:56.349Z,1013.13
2017-10-25T01:55:56.326Z,1013.09
2017-10-25T01:56:56.306Z,1013.11
2017-10-25T01:57:56.277Z,1013.1
2017-10-25T01:58:56.255Z,1013.07
2017-10-25T01:59:56.235Z,1013.1
2017-10-25T02:00:56.214Z,1013.08
2017-10-25T02:01:56.190Z,1013.04
2017-10-25T02:02:56.169Z,1013.11
2017-10-25T02:03:56.149Z,1013.07
2017-10-25T02:04:56.127Z,1013.07
2017-10-25T02:05:56.105Z,1013.06
2017-10-25T02:06:56.086Z,1013.09
2017-10-25T02:07:56.063Z,1013.08
2017-10-25T02:08:56.040Z,1013.09
2017-10-25T02:09:56.018Z,1013.03
2017-10-25T02:10:56.002Z,1013.06
2017-10-25T02:11:55.975Z,1013.07
2017-10-25T02:12:55.953Z,1013.04
2017-10-25T02:13:55.936Z,1013.01
2017-10-25T02:14:55.909Z,1013.03
2017-10-25T02:15:55.890Z,1012.97
2017-10-25T02:16:55.865Z,1012.99
2017-10-25T02:17:55.845Z,1012.99
2017-10-25T02:18:55.829Z,1012.97
2017-10-25T02:19:55.803Z,1012.99
2017-10-25T02:20:55.779Z,1013.03
2017-10-25T02:21:55.758Z,1012.98
2017-10-25T02:22:55.738Z,1012.98
2017-10-25T02:23:55.716Z,1012.96
2017-10-25T02:24:55.694Z,1012.99
2017-10-25T02:25:55.673Z,1013
2017-10-25T02:26:55.650Z,1012.99
2017-10-25T02:27:55.627Z,1013.01
2017-10-25T02:28:55.607Z,1013
2017-10-25T02:29:55.587Z,1013
2017-10-25T02:30:55.571Z,1013
2017-10-25T02:31:55.544Z,1012.95
2017-10-25T02:32:55.521Z,1012.95
2017-10-25T02:33:55.501Z,1012.93
2017-10-25T02:34:55.476Z,1012.91
2017-10-25T02:35:55.455Z,1012.96
2017-10-25T02:36:55.436Z,1012.89
2017-10-25T02:37:55.418Z,1012.88
2017-10-25T02:38:55.395Z,1012.87
2017-10-25T02:39:55.374Z,1012.9
2017-10-25T02:40:55.351Z,1012.87
2017-10-25T02:41:55.329Z,1012.84
2017-10-25T02:42:55.309Z,1012.82
2017-10-25T02:43:55.285Z,1012.88
2017-10-25T02:44:55.266Z,1012.85
2017-10-25T02:45:55.244Z,1012.79
2017-10-25T02:46:55.219Z,1012.79
2017-10-25T02:47:55.200Z,1012.76
2017-10-25T02:48:55.177Z,1012.72
2017-10-25T02:49:55.157Z,1012.68
2017-10-25T02:50:55.135Z,1012.7
2017-10-25T02:51:55.112Z,1012.7
2017-10-25T02:52:55.091Z,1012.71
2017-10-25T02:53:55.080Z,1012.71
2017-10-25T02:54:55.048Z,1012.73
2017-10-25T02:55:55.027Z,1012.74
2017-10-25T02:56:55.006Z,1012.74
2017-10-25T02:57:54.989Z,1012.7
2017-10-25T02:58:54.963Z,1012.7
2017-10-25T02:59:54.942Z,1012.7
2017-10-25T03:00:54.918Z,1012.66
2017-10-25T03:01:54.900Z,1012.62
2017-10-25T03:02:54.878Z,1012.66
2017-10-25T03:03:54.854Z,1012.65
2017-10-25T03:04:54.833Z,1012.69
2017-10-25T03:05:54.813Z,1012.68
2017-10-25T03:06:54.790Z,1012.7
2017-10-25T03:07:54.768Z,1012.72
2017-10-25T03:08:54.747Z,1012.77
2017-10-25T03:09:54.727Z,1012.74
2017-10-25T03:10:54.704Z,1012.75
2017-10-25T03:11:54.682Z,1012.7
2017-10-25T03:12:54.662Z,1012.73
2017-10-25T03:13:54.639Z,1012.72
2017-10-25T03:14:54.619Z,1012.74
2017-10-25T03:15:54.595Z,1012.76
2017-10-25T03:16:54.577Z,1012.74
2017-10-25T03:17:54.551Z,1012.77
2017-10-25T03:18:54.533Z,1012.73
2017-10-25T03:19:54.510Z,1012.8
2017-10-25T03:20:54.486Z,1012.78
2017-10-25T03:21:54.477Z,1012.78
2017-10-25T03:22:54.444Z,1012.77
2017-10-25T03:23:54.425Z,1012.78
2017-10-25T03:24:54.401Z,1012.75
2017-10-25T03:25:54.380Z,1012.69
2017-10-25T03:26:54.358Z,1012.73
2017-10-25T03:27:54.336Z,1012.7
2017-10-25T03:28:54.315Z,1012.66
2017-10-25T03:29:54.291Z,1012.69
2017-10-25T03:30:54.273Z,1012.7
2017-10-25T03:31:54.249Z,1012.74
2017-10-25T03:32:54.227Z,1012.7
2017-10-25T03:33:54.206Z,1012.73
2017-10-25T03:34:54.185Z,1012.7
2017-10-25T03:35:54.169Z,1012.7
2017-10-25T03:36:54.141Z,1012.69
2017-10-25T03:37:54.120Z,1012.7
2017-10-25T03:38:54.100Z,1012.67
2017-10-25T03:39:54.077Z,1012.68
2017-10-25T03:40:54.055Z,1012.67
2017-10-25T03:41:54.037Z,1012.66
2017-10-25T03:42:54.014Z,1012.67
2017-10-25T03:43:53.992Z,1012.69
2017-10-25T03:44:53.971Z,1012.7
2017-10-25T03:45:53.945Z,1012.63
2017-10-25T03:46:53.925Z,1012.62
2017-10-25T03:47:53.903Z,1012.61
2017-10-25T03:48:53.882Z,1012.57
2017-10-25T03:49:53.860Z,1012.54
2017-10-25T03:50:53.842Z,1012.63
2017-10-25T03:51:53.821Z,1012.59
2017-10-25T03:52:53.796Z,1012.59
2017-10-25T03:53:53.776Z,1012.61
2017-10-25T03:54:53.757Z,1012.63
2017-10-25T03:55:53.730Z,1012.64
2017-10-25T03:56:53.709Z,1012.68
2017-10-25T03:57:53.688Z,1012.64
2017-10-25T03:58:53.667Z,1012.69
2017-10-25T03:59:53.643Z,1012.68
2017-10-25T04:00:53.622Z,1012.65
2017-10-25T04:01:53.605Z,1012.69
2017-10-25T04:02:53.582Z,1012.69
2017-10-25T04:03:53.562Z,1012.63
2017-10-25T04:04:53.538Z,1012.67
2017-10-25T04:05:53.515Z,1012.65
2017-10-25T04:06:53.492Z,1012.65
2017-10-25T04:07:53.471Z,1012.72
2017-10-25T04:08:53.450Z,1012.66
2017-10-25T04:09:53.433Z,1012.67
2017-10-25T04:10:53.405Z,1012.69
2017-10-25T04:11:53.385Z,1012.63
2017-10-25T04:12:53.364Z,1012.6
2017-10-25T04:13:53.342Z,1012.61
2017-10-25T04:14:53.321Z,1012.63
2017-10-25T04:15:53.306Z,1012.62
2017-10-25T04:16:53.278Z,1012.53
2017-10-25T04:17:53.256Z,1012.54
2017-10-25T04:18:53.235Z,1012.58
2017-10-25T04:19:53.214Z,1012.55
2017-10-25T04:20:53.194Z,1012.53
2017-10-25T04:21:53.168Z,1012.52
2017-10-25T04:22:53.152Z,1012.5
2017-10-25T04:23:53.127Z,1012.53
2017-10-25T04:24:53.112Z,1012.53
2017-10-25T04:25:53.082Z,1012.49
2017-10-25T04:26:53.065Z,1012.54
2017-10-25T04:27:53.041Z,1012.43
2017-10-25T04:28:53.020Z,1012.46
2017-10-25T04:29:52.997Z,1012.5
2017-10-25T04:30:52.975Z,1012.39
2017-10-25T04:31:52.959Z,1012.38
2017-10-25T04:32:52.932Z,1012.43
2017-10-25T04:33:52.912Z,1012.35
2017-10-25T04:34:52.891Z,1012.37
2017-10-25T04:35:52.869Z,1012.38
2017-10-25T04:36:52.846Z,1012.32
2017-10-25T04:37:53.226Z,1012.34
2017-10-25T04:38:52.805Z,1012.35
2017-10-25T04:39:52.782Z,1012.29
2017-10-25T04:40:52.761Z,1012.26
2017-10-25T04:41:52.739Z,1012.25
2017-10-25T04:42:52.718Z,1012.21
2017-10-25T04:43:52.694Z,1012.27
2017-10-25T04:44:52.678Z,1012.23
2017-10-25T04:45:52.659Z,1012.24
2017-10-25T04:46:52.641Z,1012.26
2017-10-25T04:47:52.608Z,1012.28
2017-10-25T04:48:52.588Z,1012.22
2017-10-25T04:49:52.567Z,1012.26
2017-10-25T04:50:52.548Z,1012.29
2017-10-25T04:51:52.533Z,1012.28
2017-10-25T04:52:52.501Z,1012.23
2017-10-25T04:53:52.483Z,1012.23
2017-10-25T04:54:52.458Z,1012.26
2017-10-25T04:55:52.437Z,1012.26
2017-10-25T04:56:52.419Z,1012.25
2017-10-25T04:57:52.393Z,1012.13
2017-10-25T04:58:52.373Z,1012.16
2017-10-25T04:59:52.351Z,1012.16
2017-10-25T05:00:52.331Z,1012.12
2017-10-25T05:01:52.307Z,1012.12
2017-10-25T05:02:52.293Z,1012.12
2017-10-25T05:03:52.276Z,1012.12
2017-10-25T05:04:52.243Z,1012.16
2017-10-25T05:05:52.228Z,1012.15
2017-10-25T05:06:52.201Z,1012.16
2017-10-25T05:07:52.183Z,1012.1
2017-10-25T05:08:52.157Z,1012.16
2017-10-25T05:09:52.133Z,1012.11
2017-10-25T05:10:52.123Z,1012.14
2017-10-25T05:11:52.093Z,1012.15
2017-10-25T05:12:52.070Z,1012.1
2017-10-25T05:13:52.048Z,1012.01
2017-10-25T05:14:52.028Z,1011.97
2017-10-25T05:15:52.007Z,1011.97
2017-10-25T05:16:51.995Z,1011.98
2017-10-25T05:17:51.972Z,1011.86
2017-10-25T05:18:51.943Z,1011.89
2017-10-25T05:19:51.920Z,1011.86
2017-10-25T05:20:51.898Z,1011.81
2017-10-25T05:21:51.877Z,1011.85
2017-10-25T05:22:51.858Z,1011.84
2017-10-25T05:23:51.839Z,1011.79
2017-10-25T05:24:51.812Z,1011.79
2017-10-25T05:25:51.792Z,1011.78
2017-10-25T05:26:51.770Z,1011.84
2017-10-25T05:27:51.747Z,1011.78
2017-10-25T05:28:51.727Z,1011.74
2017-10-25T05:29:51.706Z,1011.66
2017-10-25T05:30:51.683Z,1011.61
2017-10-25T05:31:51.660Z,1011.61
2017-10-25T05:32:51.641Z,1011.64
2017-10-25T05:33:51.618Z,1011.63
2017-10-25T05:34:51.596Z,1011.62
2017-10-25T05:35:51.575Z,1011.55
2017-10-25T05:36:51.553Z,1011.52
2017-10-25T05:37:51.533Z,1011.62
2017-10-25T05:38:51.513Z,1011.58
2017-10-25T05:39:51.487Z,1011.54
2017-10-25T05:40:51.466Z,1011.55
2017-10-25T05:41:51.449Z,1011.5
2017-10-25T05:42:51.425Z,1011.52
2017-10-25T05:43:51.404Z,1011.54
2017-10-25T05:44:51.384Z,1011.51
2017-10-25T05:45:51.357Z,1011.55
2017-10-25T05:46:51.337Z,1011.56
2017-10-25T05:47:51.315Z,1011.56
2017-10-25T05:48:51.298Z,1011.53
2017-10-25T05:49:51.273Z,1011.56
2017-10-25T05:50:51.252Z,1011.56
2017-10-25T05:51:51.231Z,1011.53
2017-10-25T05:52:51.208Z,1011.57
2017-10-25T05:53:51.187Z,1011.51
2017-10-25T05:54:51.168Z,1011.53
2017-10-25T05:55:51.146Z,1011.48
2017-10-25T05:56:51.123Z,1011.48
2017-10-25T05:57:51.102Z,1011.48
2017-10-25T05:58:51.078Z,1011.57
2017-10-25T05:59:51.056Z,1011.57
2017-10-25T06:00:51.036Z,1011.6
2017-10-25T06:01:51.013Z,1011.62
2017-10-25T06:02:50.991Z,1011.6
2017-10-25T06:03:50.975Z,1011.6
2017-10-25T06:04:50.949Z,1011.58
2017-10-25T06:05:50.924Z,1011.56
2017-10-25T06:06:50.905Z,1011.53
2017-10-25T06:07:50.883Z,1011.52
2017-10-25T06:08:50.865Z,1011.53
2017-10-25T06:09:50.841Z,1011.45
2017-10-25T06:10:50.819Z,1011.43
2017-10-25T06:11:50.797Z,1011.48
2017-10-25T06:12:50.776Z,1011.5
2017-10-25T06:13:50.754Z,1011.53
2017-10-25T06:14:50.731Z,1011.53
2017-10-25T06:15:50.713Z,1011.51
2017-10-25T06:16:50.690Z,1011.57
2017-10-25T06:17:50.667Z,1011.55
2017-10-25T06:18:50.653Z,1011.51
2017-10-25T06:19:50.624Z,1011.58
2017-10-25T06:20:50.606Z,1011.56
2017-10-25T06:21:50.580Z,1011.57
2017-10-25T06:22:50.557Z,1011.57
2017-10-25T06:23:50.538Z,1011.59
2017-10-25T06:24:50.514Z,1011.63
2017-10-25T06:25:50.494Z,1011.64
2017-10-25T06:26:50.476Z,1011.65
2017-10-25T06:27:50.451Z,1011.68
2017-10-25T06:28:50.427Z,1011.78
2017-10-25T06:29:50.405Z,1011.72
2017-10-25T06:30:50.385Z,1011.78
2017-10-25T06:31:50.367Z,1011.84
2017-10-25T06:32:50.349Z,1011.84
2017-10-25T06:33:50.331Z,1011.83
2017-10-25T06:34:50.297Z,1011.81
2017-10-25T06:35:50.277Z,1011.9
2017-10-25T06:36:50.253Z,1011.96
2017-10-25T06:37:50.233Z,1012.01
2017-10-25T06:38:50.215Z,1011.96
2017-10-25T06:39:50.190Z,1012.05
2017-10-25T06:40:50.165Z,1012.05
2017-10-25T06:41:50.148Z,1012.01
2017-10-25T06:42:50.123Z,1011.95
2017-10-25T06:43:50.102Z,1012.01
2017-10-25T06:44:50.092Z,1011.99
2017-10-25T06:45:50.058Z,1011.93
2017-10-25T06:46:50.040Z,1012.04
2017-10-25T06:47:50.016Z,1012.02
2017-10-25T06:48:49.995Z,1012.04
2017-10-25T06:49:49.975Z,1012.04
2017-10-25T06:50:49.949Z,1012.1
2017-10-25T06:51:49.926Z,1012.25
2017-10-25T06:52:49.911Z,1012.25
2017-10-25T06:53:49.889Z,1012.31
2017-10-25T06:54:49.867Z,1012.34
2017-10-25T06:55:49.847Z,1012.34
2017-10-25T06:56:49.819Z,1012.35
2017-10-25T06:57:49.803Z,1012.43
2017-10-25T06:58:49.775Z,1012.39
2017-10-25T06:59:49.754Z,1012.33
2017-10-25T07:00:50.133Z,1012.47
2017-10-25T07:01:49.732Z,1012.5
2017-10-25T07:02:49.696Z,1012.52
2017-10-25T07:03:49.668Z,1012.5
2017-10-25T07:04:49.669Z,1012.57
2017-10-25T07:05:49.626Z,1012.59
2017-10-25T07:06:49.602Z,1012.54
2017-10-25T07:07:49.578Z,1012.51
2017-10-25T07:08:49.561Z,1012.46
2017-10-25T07:09:49.552Z,1012.49
2017-10-25T07:10:49.519Z,1012.48
2017-10-25T07:11:49.494Z,1012.5
2017-10-25T07:12:49.474Z,1012.49
2017-10-25T07:13:49.455Z,1012.51
2017-10-25T07:14:49.431Z,1012.45
2017-10-25T07:15:49.410Z,1012.48
2017-10-25T07:16:49.397Z,1012.48
2017-10-25T07:17:49.366Z,1012.49
2017-10-25T07:18:49.343Z,1012.46
2017-10-25T07:19:49.324Z,1012.49
2017-10-25T07:20:49.304Z,1012.55
2017-10-25T07:21:49.283Z,1012.47
2017-10-25T07:22:49.265Z,1012.51
2017-10-25T07:23:49.241Z,1012.49
2017-10-25T07:24:49.218Z,1012.51
2017-10-25T07:25:49.196Z,1012.49
2017-10-25T07:26:49.177Z,1012.5
2017-10-25T07:27:49.154Z,1012.5
2017-10-25T07:28:49.133Z,1012.5
2017-10-25T07:29:49.111Z,1012.5
2017-10-25T07:30:49.091Z,1012.41
2017-10-25T07:31:49.069Z,1012.49
2017-10-25T07:32:49.049Z,1012.49
2017-10-25T07:33:49.026Z,1012.45
2017-10-25T07:34:49.003Z,1012.5
2017-10-25T07:35:48.986Z,1012.51
2017-10-25T07:36:48.962Z,1012.48
2017-10-25T07:37:48.944Z,1012.48
2017-10-25T07:38:48.921Z,1012.51
2017-10-25T07:39:48.902Z,1012.5
2017-10-25T07:40:48.879Z,1012.58
2017-10-25T07:41:48.858Z,1012.57
2017-10-25T07:42:48.836Z,1012.59
2017-10-25T07:43:48.813Z,1012.62
2017-10-25T07:44:48.793Z,1012.58
2017-10-25T07:45:48.772Z,1012.51
2017-10-25T07:46:48.752Z,1012.48
2017-10-25T07:47:48.732Z,1012.48
2017-10-25T07:48:48.710Z,1012.47
2017-10-25T07:49:48.690Z,1012.4
2017-10-25T07:50:48.672Z,1012.41
2017-10-25T07:51:48.649Z,1012.38
2017-10-25T07:52:48.627Z,1012.39
2017-10-25T07:53:48.605Z,1012.29
2017-10-25T07:54:48.588Z,1012.29
2017-10-25T07:55:48.565Z,1012.34
2017-10-25T07:56:48.544Z,1012.4
2017-10-25T07:57:48.529Z,1012.41
2017-10-25T07:58:48.514Z,1012.35
2017-10-25T07:59:48.485Z,1012.37
2017-10-25T08:00:48.463Z,1012.4
2017-10-25T08:01:48.444Z,1012.47
2017-10-25T08:02:48.424Z,1012.51
2017-10-25T08:03:48.405Z,1012.57
2017-10-25T08:04:48.385Z,1012.53
2017-10-25T08:05:48.365Z,1012.54
2017-10-25T08:06:48.344Z,1012.52
2017-10-25T08:07:48.322Z,1012.51
2017-10-25T08:08:48.306Z,1012.52
2017-10-25T08:09:48.290Z,1012.43
2017-10-25T08:10:48.267Z,1012.46
2017-10-25T08:11:48.247Z,1012.46
2017-10-25T08:12:48.229Z,1012.47
2017-10-25T08:13:48.209Z,1012.46
2017-10-25T08:14:48.188Z,1012.43
2017-10-25T08:15:48.167Z,1012.46
2017-10-25T08:16:48.149Z,1012.48
2017-10-25T08:17:48.129Z,1012.53
2017-10-25T08:18:48.111Z,1012.49
2017-10-25T08:19:48.092Z,1012.47
2017-10-25T08:20:48.073Z,1012.46
2017-10-25T08:21:48.050Z,1012.49
2017-10-25T08:22:48.036Z,1012.48
2017-10-25T08:23:48.015Z,1012.45
2017-10-25T08:24:47.996Z,1012.48
2017-10-25T08:25:47.976Z,1012.51
2017-10-25T08:26:47.960Z,1012.53
2017-10-25T08:27:47.937Z,1012.55
2017-10-25T08:28:47.914Z,1012.5
2017-10-25T08:29:47.898Z,1012.5
2017-10-25T08:30:47.880Z,1012.5
2017-10-25T08:31:47.860Z,1012.47
2017-10-25T08:32:47.841Z,1012.47
2017-10-25T08:33:47.823Z,1012.52
2017-10-25T08:34:47.848Z,1012.47
2017-10-25T08:35:47.798Z,1012.52
2017-10-25T08:36:47.771Z,1012.52
2017-10-25T08:37:47.815Z,1012.57
2017-10-25T08:38:47.727Z,1012.54
2017-10-25T08:39:47.708Z,1012.56
2017-10-25T08:40:47.717Z,1012.58
2017-10-25T08:41:47.703Z,1012.6
2017-10-25T08:42:47.649Z,1012.62
2017-10-25T08:43:47.629Z,1012.61
2017-10-25T08:44:47.609Z,1012.6
2017-10-25T08:45:47.591Z,1012.61
2017-10-25T08:46:47.572Z,1012.64
2017-10-25T08:47:47.553Z,1012.63
2017-10-25T08:48:47.532Z,1012.69
2017-10-25T08:49:47.516Z,1012.65
2017-10-25T08:50:47.488Z,1012.67
2017-10-25T08:51:47.482Z,1012.73
2017-10-25T08:52:47.454Z,1012.75
2017-10-25T08:53:47.433Z,1012.74
2017-10-25T08:54:47.413Z,1012.84
2017-10-25T08:55:47.393Z,1012.85
2017-10-25T08:56:47.374Z,1012.82
2017-10-25T08:57:47.354Z,1012.85
2017-10-25T08:58:47.332Z,1012.89
2017-10-25T08:59:47.311Z,1012.83
2017-10-25T09:00:47.291Z,1012.76
2017-10-25T09:01:47.274Z,1012.75
2017-10-25T09:02:47.252Z,1012.78
2017-10-25T09:03:47.233Z,1012.84
2017-10-25T09:04:47.216Z,1012.79
2017-10-25T09:05:47.192Z,1012.82
2017-10-25T09:06:47.172Z,1012.95
2017-10-25T09:07:47.153Z,1012.83
2017-10-25T09:08:47.131Z,1012.89
2017-10-25T09:09:47.114Z,1012.92
2017-10-25T09:10:47.092Z,1012.91
2017-10-25T09:11:47.071Z,1012.93
2017-10-25T09:12:47.054Z,1013.01
2017-10-25T09:13:47.031Z,1013.06
2017-10-25T09:14:47.010Z,1013.07
2017-10-25T09:15:46.997Z,1013.04
2017-10-25T09:16:46.975Z,1013.09
2017-10-25T09:17:46.951Z,1013.12
2017-10-25T09:18:46.931Z,1013.14
2017-10-25T09:19:46.909Z,1013.18
2017-10-25T09:20:46.891Z,1013.2
2017-10-25T09:21:46.869Z,1013.13
2017-10-25T09:22:46.850Z,1013.13
2017-10-25T09:23:46.835Z,1013.13
2017-10-25T09:24:46.810Z,1013.11
2017-10-25T09:25:46.790Z,1013.11
2017-10-25T09:26:46.768Z,1013.17
2017-10-25T09:27:46.749Z,1013.22
2017-10-25T09:28:46.732Z,1013.17
2017-10-25T09:29:46.714Z,1013.18
2017-10-25T09:30:46.691Z,1013.16
2017-10-25T09:31:46.674Z,1013.24
2017-10-25T09:32:46.650Z,1013.16
2017-10-25T09:33:46.630Z,1013.16
2017-10-25T09:34:46.609Z,1013.18
2017-10-25T09:35:46.593Z,1013.13
2017-10-25T09:36:46.572Z,1013.17
2017-10-25T09:37:46.553Z,1013.12
2017-10-25T09:38:46.530Z,1013.2
2017-10-25T09:39:46.511Z,1013.17
2017-10-25T09:40:46.492Z,1013.13
2017-10-25T09:41:46.472Z,1013.1
2017-10-25T09:42:46.451Z,1013.18
2017-10-25T09:43:46.430Z,1013.15
2017-10-25T09:44:46.414Z,1013.12
2017-10-25T09:45:46.390Z,1013.17
2017-10-25T09:46:46.370Z,1013.13
2017-10-25T09:47:46.350Z,1013.19
2017-10-25T09:48:46.332Z,1013.18
2017-10-25T09:49:46.313Z,1013.12
2017-10-25T09:50:46.288Z,1013.15
2017-10-25T09:51:46.270Z,1013.09
2017-10-25T09:52:46.250Z,1013.09
2017-10-25T09:53:46.227Z,1013.12
2017-10-25T09:54:46.208Z,1013.15
2017-10-25T09:55:46.188Z,1013.12
2017-10-25T09:56:46.168Z,1013.14
2017-10-25T09:57:46.147Z,1013.18
2017-10-25T09:58:46.126Z,1013.1
2017-10-25T09:59:46.105Z,1013.16
2017-10-25T10:00:46.089Z,1013.17
2017-10-25T10:01:46.064Z,1013.15
2017-10-25T10:02:46.044Z,1013.23
2017-10-25T10:03:46.024Z,1013.22
2017-10-25T10:04:46.005Z,1013.28
2017-10-25T10:05:45.985Z,1013.29
2017-10-25T10:06:45.962Z,1013.37
2017-10-25T10:07:45.942Z,1013.41
2017-10-25T10:08:45.920Z,1013.43
2017-10-25T10:09:45.901Z,1013.39
2017-10-25T10:10:45.887Z,1013.37
2017-10-25T10:11:45.859Z,1013.32
2017-10-25T10:12:45.838Z,1013.35
2017-10-25T10:13:45.816Z,1013.36
2017-10-25T10:14:45.797Z,1013.35
2017-10-25T10:15:45.775Z,1013.3
2017-10-25T10:16:45.757Z,1013.28
2017-10-25T10:17:45.735Z,1013.29
2017-10-25T10:18:45.718Z,1013.3
2017-10-25T10:19:45.698Z,1013.29
2017-10-25T10:20:45.672Z,1013.34
2017-10-25T10:21:45.652Z,1013.41
2017-10-25T10:22:45.633Z,1013.37
2017-10-25T10:23:45.608Z,1013.37
2017-10-25T10:24:45.592Z,1013.38
2017-10-25T10:25:45.577Z,1013.4
2017-10-25T10:26:45.548Z,1013.41
2017-10-25T10:27:45.527Z,1013.38
2017-10-25T10:28:45.506Z,1013.4
2017-10-25T10:29:45.485Z,1013.46
2017-10-25T10:30:45.463Z,1013.47
2017-10-25T10:31:45.444Z,1013.42
2017-10-25T10:32:45.423Z,1013.44
2017-10-25T10:33:45.403Z,1013.47
2017-10-25T10:34:45.382Z,1013.51
2017-10-25T10:35:45.364Z,1013.51
2017-10-25T10:36:45.344Z,1013.46
2017-10-25T10:37:45.323Z,1013.49
2017-10-25T10:38:45.305Z,1013.47
2017-10-25T10:39:45.284Z,1013.44
2017-10-25T10:40:45.266Z,1013.42
2017-10-25T10:41:45.243Z,1013.35
2017-10-25T10:42:45.221Z,1013.4
2017-10-25T10:43:45.201Z,1013.39
2017-10-25T10:44:45.181Z,1013.43
2017-10-25T10:45:45.161Z,1013.47
2017-10-25T10:46:45.144Z,1013.49
2017-10-25T10:47:45.121Z,1013.49
2017-10-25T10:48:45.097Z,1013.46
2017-10-25T10:49:45.079Z,1013.5
2017-10-25T10:50:45.059Z,1013.5
2017-10-25T10:51:45.040Z,1013.49
2017-10-25T10:52:45.017Z,1013.44
2017-10-25T10:53:45.003Z,1013.4
2017-10-25T10:54:44.980Z,1013.51
2017-10-25T10:55:44.957Z,1013.5
2017-10-25T10:56:44.940Z,1013.54
2017-10-25T10:57:44.916Z,1013.51
2017-10-25T10:58:44.899Z,1013.54
2017-10-25T10:59:44.872Z,1013.53
2017-10-25T11:00:44.854Z,1013.56
2017-10-25T11:01:44.835Z,1013.68
2017-10-25T11:02:44.816Z,1013.65
2017-10-25T11:03:44.795Z,1013.7
2017-10-25T11:04:44.772Z,1013.72
2017-10-25T11:05:44.754Z,1013.73
2017-10-25T11:06:44.731Z,1013.77
2017-10-25T11:07:44.709Z,1013.76
2017-10-25T11:08:44.691Z,1013.84
2017-10-25T11:09:44.674Z,1013.76
2017-10-25T11:10:44.653Z,1013.72
2017-10-25T11:11:44.630Z,1013.75
2017-10-25T11:12:44.605Z,1013.71
2017-10-25T11:13:44.586Z,1013.77
2017-10-25T11:14:44.567Z,1013.77
2017-10-25T11:15:44.547Z,1013.74
2017-10-25T11:16:44.524Z,1013.7
2017-10-25T11:17:44.507Z,1013.72
2017-10-25T11:18:44.481Z,1013.75
2017-10-25T11:19:44.461Z,1013.74
2017-10-25T11:20:44.439Z,1013.72
2017-10-25T11:21:44.419Z,1013.77
2017-10-25T11:22:44.414Z,1013.78
2017-10-25T11:23:44.379Z,1013.79
2017-10-25T11:24:44.359Z,1013.79
2017-10-25T11:25:44.344Z,1013.81
2017-10-25T11:26:44.315Z,1013.86
2017-10-25T11:27:44.296Z,1013.81
2017-10-25T11:28:44.622Z,1013.85
2017-10-25T11:29:44.252Z,1013.82
2017-10-25T11:30:44.228Z,1013.83
2017-10-25T11:31:44.210Z,1013.8
2017-10-25T11:32:44.197Z,1013.8
2017-10-25T11:33:44.171Z,1013.83
2017-10-25T11:34:44.153Z,1013.85
2017-10-25T11:35:44.126Z,1013.82
2017-10-25T11:36:44.175Z,1013.88
2017-10-25T11:37:44.090Z,1013.82
2017-10-25T11:38:44.074Z,1013.8
2017-10-25T11:39:44.061Z,1013.84
2017-10-25T11:40:44.022Z,1013.83
2017-10-25T11:41:43.999Z,1013.83
2017-10-25T11:42:43.979Z,1013.81
2017-10-25T11:43:43.957Z,1013.83
2017-10-25T11:44:43.943Z,1013.87
2017-10-25T11:45:43.918Z,1013.89
2017-10-25T11:46:43.910Z,1013.83
2017-10-25T11:47:43.874Z,1013.83
2017-10-25T11:48:43.858Z,1013.82
2017-10-25T11:49:43.839Z,1013.79
2017-10-25T11:50:43.811Z,1013.79
2017-10-25T11:51:43.798Z,1013.74
2017-10-25T11:52:43.778Z,1013.8
2017-10-25T11:53:43.756Z,1013.86
2017-10-25T11:54:43.741Z,1013.84
2017-10-25T11:55:43.722Z,1013.76
2017-10-25T11:56:43.714Z,1013.73
2017-10-25T11:57:43.668Z,1013.79
2017-10-25T11:58:43.715Z,1013.81
2017-10-25T11:59:43.640Z,1013.81
2017-10-25T12:00:43.962Z,1013.79
2017-10-25T12:01:43.598Z,1013.86
2017-10-25T12:02:43.584Z,1013.87
2017-10-25T12:03:43.553Z,1013.9
2017-10-25T12:04:43.530Z,1013.87
2017-10-25T12:05:43.501Z,1013.89
2017-10-25T12:06:43.485Z,1013.91
2017-10-25T12:07:43.465Z,1013.91
2017-10-25T12:08:43.492Z,1013.88